Time;durP1;ratioP1;P1;durP2;ratioP2;P2;SDS_P1;SDS_P2;PMS_P1;PMS_P2;Temp;Humidity;BMP_temperature;BMP_pressure;BME280_temperature;BME280_humidity;BME280_pressure;Samples;Min_cycle;Max_cycle;Signal;HPM_P1;HPM_P2
2022/02/22 00:00:46;;;;;;;3.05;0.63;;;;;;;6.87;100.00;99774.38;5039761;28;20032;-49
2022/02/22 00:03:12;;;;;;;0.68;0.40;;;;;;;6.81;100.00;99776.56;5040286;28;20488;-53
2022/02/22 00:05:38;;;;;;;0.40;0.40;;;;;;;6.80;100.00;99788.38;5038444;28;20407;-58
2022/02/22 00:08:05;;;;;;;0.50;0.50;;;;;;;6.79;100.00;99786.81;5029825;28;20037;-57
2022/02/22 00:10:30;;;;;;;4.10;0.60;;;;;;;6.64;100.00;99792.97;5031768;28;20059;-53
2022/02/22 00:12:56;;;;;;;3.05;0.93;;;;;;;6.67;100.00;99792.28;5038882;28;20476;-59
2022/02/22 00:15:22;;;;;;;2.58;0.80;;;;;;;6.62;100.00;99803.25;5054922;28;20400;-56
2022/02/22 00:17:48;;;;;;;13.55;1.08;;;;;;;6.66;100.00;99804.09;5043625;28;20515;-48
2022/02/22 00:20:14;;;;;;;1.90;0.93;;;;;;;6.54;100.00;99820.28;5041067;28;20348;-57
2022/02/22 00:22:40;;;;;;;0.77;0.45;;;;;;;6.57;100.00;99816.13;5045677;28;20041;-54
2022/02/22 00:25:06;;;;;;;2.28;0.60;;;;;;;6.56;100.00;99822.59;5028778;28;20912;-60
2022/02/22 00:27:32;;;;;;;6.10;1.15;;;;;;;6.53;100.00;99828.63;5026136;28;20135;-52
2022/02/22 00:29:57;;;;;;;2.42;1.05;;;;;;;6.47;100.00;99830.81;5033181;28;20606;-52
2022/02/22 00:32:23;;;;;;;0.60;0.50;;;;;;;6.53;100.00;99839.31;5040330;28;20081;-54
2022/02/22 00:34:49;;;;;;;17.58;1.67;;;;;;;6.56;100.00;99844.00;5030152;28;20087;-50
2022/02/22 00:37:14;;;;;;;5.80;0.95;;;;;;;6.53;100.00;99847.34;5058870;28;20433;-52
2022/02/22 00:39:40;;;;;;;8.07;1.40;;;;;;;6.51;100.00;99855.72;5032624;28;20025;-51
2022/02/22 00:42:06;;;;;;;6.45;0.93;;;;;;;6.56;100.00;99863.50;5044714;28;20037;-54
2022/02/22 00:44:32;;;;;;;9.93;1.52;;;;;;;6.57;100.00;99865.03;5027406;28;20026;-57
2022/02/22 00:46:57;;;;;;;4.15;0.77;;;;;;;6.59;100.00;99872.72;5017395;28;20041;-55
2022/02/22 00:49:23;;;;;;;2.28;0.55;;;;;;;6.55;100.00;99883.34;5037800;28;20028;-53
2022/02/22 00:51:48;;;;;;;6.40;1.30;;;;;;;6.61;100.00;99892.66;5036060;28;20651;-52
2022/02/22 00:54:14;;;;;;;1.27;0.93;;;;;;;6.50;100.00;99896.19;5040904;28;20033;-53
2022/02/22 00:56:39;;;;;;;6.50;0.70;;;;;;;6.55;100.00;99901.28;5043484;28;20119;-59
2022/02/22 00:59:05;;;;;;;6.78;0.77;;;;;;;6.56;100.00;99914.31;5045653;28;20110;-59
2022/02/22 01:01:30;;;;;;;2.88;0.50;;;;;;;6.50;100.00;99913.03;5038624;28;20098;-48
2022/02/22 01:03:56;;;;;;;2.13;1.05;;;;;;;6.45;100.00;99913.25;5021786;28;20029;-54
2022/02/22 01:06:21;;;;;;;8.70;1.55;;;;;;;6.54;99.39;99926.47;5029721;28;20274;-49
2022/02/22 01:08:46;;;;;;;2.38;0.52;;;;;;;6.47;99.54;99924.41;5041805;28;20025;-48
2022/02/22 01:11:12;;;;;;;7.32;0.60;;;;;;;6.41;99.92;99941.06;5036266;28;20032;-54
2022/02/22 01:13:40;;;;;;;6.65;0.63;;;;;;;6.42;99.38;99938.03;5029243;28;20022;-56
2022/02/22 01:16:06;;;;;;;1.20;0.30;;;;;;;6.43;99.18;99950.28;5049669;28;20116;-58
2022/02/22 01:18:31;;;;;;;1.45;0.75;;;;;;;6.35;99.10;99962.69;5050422;28;20202;-51
2022/02/22 01:20:57;;;;;;;4.90;0.80;;;;;;;6.36;98.04;99956.22;5027749;28;20102;-50
2022/02/22 01:23:22;;;;;;;1.95;0.88;;;;;;;6.27;98.23;99960.94;5035160;28;20036;-57
2022/02/22 01:25:48;;;;;;;1.02;0.52;;;;;;;6.21;97.50;99969.56;5041303;28;20033;-49
2022/02/22 01:28:13;;;;;;;2.60;0.75;;;;;;;6.21;97.13;99974.91;5027689;28;20701;-48
2022/02/22 01:30:39;;;;;;;2.65;0.60;;;;;;;6.11;97.22;99986.88;5030517;28;20091;-56
2022/02/22 01:33:04;;;;;;;2.72;0.52;;;;;;;6.13;96.48;99987.31;5039066;28;20074;-56
2022/02/22 01:35:29;;;;;;;3.05;0.93;;;;;;;6.05;96.27;99992.81;5037612;28;20290;-55
2022/02/22 01:37:55;;;;;;;10.45;0.90;;;;;;;6.06;95.28;100005.81;5049796;28;20040;-54
2022/02/22 01:40:21;;;;;;;8.30;0.50;;;;;;;6.17;93.87;100011.47;5034716;28;20032;-48
2022/02/22 01:42:46;;;;;;;0.38;0.38;;;;;;;6.01;93.82;100013.31;5044775;28;20029;-48
2022/02/22 01:45:12;;;;;;;1.35;0.77;;;;;;;5.96;93.66;100016.22;5026336;28;20037;-51
2022/02/22 01:47:37;;;;;;;0.82;0.57;;;;;;;5.89;93.99;100021.34;5041928;28;20047;-56
2022/02/22 01:50:04;;;;;;;1.75;0.98;;;;;;;5.92;92.84;100028.69;5044714;28;20041;-52
2022/02/22 01:52:30;;;;;;;0.98;0.98;;;;;;;5.97;92.19;100028.44;5047842;28;20035;-51
2022/02/22 01:54:55;;;;;;;6.35;1.08;;;;;;;5.96;91.45;100030.34;5036754;28;20617;-49
2022/02/22 01:57:22;;;;;;;2.90;0.73;;;;;;;5.91;91.23;100033.25;5046193;28;20518;-50
2022/02/22 01:59:48;;;;;;;3.45;0.80;;;;;;;5.91;91.58;100038.59;5026410;28;20060;-57
2022/02/22 02:02:14;;;;;;;1.70;0.70;;;;;;;5.90;91.79;100055.78;5041119;28;20041;-58
2022/02/22 02:04:39;;;;;;;0.32;0.32;;;;;;;5.88;92.27;100063.34;5040394;28;20492;-51
2022/02/22 02:07:06;;;;;;;2.55;0.77;;;;;;;5.93;92.28;100070.31;5039376;28;20053;-55
2022/02/22 02:09:31;;;;;;;5.95;1.00;;;;;;;6.02;92.74;100062.97;5039143;28;20472;-50
2022/02/22 02:12:02;;;;;;;1.88;0.63;;;;;;;6.06;93.11;100079.84;5018244;28;20036;-53
2022/02/22 02:14:28;;;;;;;3.40;0.65;;;;;;;6.00;93.92;100073.22;5026499;28;20035;-50
2022/02/22 02:16:56;;;;;;;1.17;0.63;;;;;;;6.05;94.84;100091.69;5037068;28;20481;-57
2022/02/22 02:19:22;;;;;;;5.97;1.42;;;;;;;6.12;94.52;100095.31;5033189;28;20037;-55
2022/02/22 02:21:49;;;;;;;2.22;0.80;;;;;;;6.11;95.31;100098.34;5045402;28;20507;-48
2022/02/22 02:24:23;;;;;;;0.88;0.50;;;;;;;6.14;95.17;100106.47;5029971;28;20221;-52
2022/02/22 02:26:50;;;;;;;5.38;0.65;;;;;;;6.09;95.69;100113.94;5028416;28;20443;-55
2022/02/22 02:29:18;;;;;;;7.70;1.17;;;;;;;6.07;95.54;100124.97;5028457;28;20072;-52
2022/02/22 02:31:45;;;;;;;1.33;0.60;;;;;;;6.07;95.82;100121.50;5029197;28;20076;-49
2022/02/22 02:34:14;;;;;;;0.57;0.40;;;;;;;6.13;95.30;100122.84;5027082;28;20025;-51
2022/02/22 02:36:41;;;;;;;3.85;0.68;;;;;;;6.08;95.22;100128.41;5038048;28;20504;-48
2022/02/22 02:39:07;;;;;;;3.70;0.93;;;;;;;6.15;95.01;100126.75;5043217;28;20037;-48
2022/02/22 02:41:34;;;;;;;1.05;0.45;;;;;;;6.12;95.05;100137.31;5029682;28;20052;-57
2022/02/22 02:44:06;;;;;;;1.90;0.55;;;;;;;6.21;94.91;100140.66;5028649;28;20029;-56
2022/02/22 02:46:32;;;;;;;2.65;0.90;;;;;;;6.24;95.31;100145.31;5029505;28;20046;-54
2022/02/22 02:48:57;;;;;;;1.73;0.77;;;;;;;6.26;96.30;100159.13;5011123;28;20392;-54
2022/02/22 02:51:23;;;;;;;1.33;0.80;;;;;;;6.21;97.79;100143.31;5043886;28;20029;-49
2022/02/22 02:53:54;;;;;;;4.82;1.40;;;;;;;6.26;98.38;100143.06;5046331;28;20439;-52
2022/02/22 02:56:22;;;;;;;0.30;0.30;;;;;;;6.20;99.07;100144.41;5030306;28;20119;-52
2022/02/22 02:59:02;;;;;;;7.38;1.08;;;;;;;6.26;99.44;100156.44;5023641;28;20037;-48
2022/02/22 03:01:29;;;;;;;2.05;0.73;;;;;;;6.20;100.00;100141.75;5039801;28;20036;-47
2022/02/22 03:03:55;;;;;;;4.40;1.00;;;;;;;6.12;100.00;100146.09;5032762;28;20052;-53
2022/02/22 03:06:21;;;;;;;1.42;0.77;;;;;;;6.17;100.00;100151.25;5040588;28;20083;-52
2022/02/22 03:08:46;;;;;;;0.73;0.70;;;;;;;6.06;100.00;100154.69;5041215;28;20068;-53
2022/02/22 03:11:12;;;;;;;12.35;0.73;;;;;;;6.08;100.00;100157.78;5025762;28;20086;-52
2022/02/22 03:13:38;;;;;;;3.95;0.47;;;;;;;6.08;99.07;100166.59;5037582;28;20030;-49
2022/02/22 03:16:05;;;;;;;3.65;0.77;;;;;;;5.97;99.46;100172.75;5047884;28;20479;-55
2022/02/22 03:18:30;;;;;;;1.50;1.27;;;;;;;5.93;99.24;100161.94;5044156;28;20052;-55
2022/02/22 03:20:56;;;;;;;5.45;1.00;;;;;;;5.98;98.29;100179.66;5030907;28;20021;-55
2022/02/22 03:23:21;;;;;;;5.30;2.05;;;;;;;5.97;98.32;100183.44;5051510;28;20025;-54
2022/02/22 03:25:49;;;;;;;7.05;0.70;;;;;;;5.90;98.01;100183.22;5048555;28;20080;-51
2022/02/22 03:28:14;;;;;;;6.03;1.00;;;;;;;5.94;98.53;100171.50;5041291;28;20037;-49
2022/02/22 03:30:40;;;;;;;2.30;0.52;;;;;;;5.94;97.48;100186.78;5043340;28;20039;-50
2022/02/22 03:33:05;;;;;;;0.43;0.40;;;;;;;5.94;97.63;100184.13;5034637;28;20040;-49
2022/02/22 03:35:31;;;;;;;5.38;0.25;;;;;;;5.89;97.09;100182.44;5043992;28;20060;-61
2022/02/22 03:37:57;;;;;;;1.27;0.90;;;;;;;5.95;96.80;100188.31;5051480;28;20126;-52
2022/02/22 03:40:23;;;;;;;2.42;0.57;;;;;;;5.91;96.42;100190.91;5048886;28;20082;-47
2022/02/22 03:42:49;;;;;;;4.78;1.23;;;;;;;5.92;95.73;100202.38;5033609;28;20040;-48
2022/02/22 03:45:16;;;;;;;6.70;0.90;;;;;;;5.97;95.87;100199.47;5044267;28;20123;-48
2022/02/22 03:47:42;;;;;;;0.88;0.60;;;;;;;5.92;96.70;100202.38;5039908;28;20495;-52
2022/02/22 03:50:10;;;;;;;7.30;1.05;;;;;;;5.96;97.30;100201.34;5031435;28;20077;-51
2022/02/22 03:52:37;;;;;;;12.52;0.95;;;;;;;6.01;98.06;100208.38;5036845;28;20032;-50
2022/02/22 03:55:04;;;;;;;1.23;0.65;;;;;;;6.10;98.01;100219.72;5045290;28;20027;-51
2022/02/22 03:57:29;;;;;;;5.85;1.23;;;;;;;6.09;96.99;100223.50;5014019;28;20039;-54
2022/02/22 03:59:55;;;;;;;4.18;1.17;;;;;;;6.02;97.87;100216.03;5018309;28;20036;-56
2022/02/22 04:02:20;;;;;;;3.08;1.13;;;;;;;5.99;97.76;100226.63;5022160;28;20399;-51
2022/02/22 04:04:46;;;;;;;7.75;1.40;;;;;;;6.07;97.42;100229.19;5050291;28;20130;-52
2022/02/22 04:07:12;;;;;;;0.50;0.38;;;;;;;5.96;97.70;100238.75;5046348;28;20468;-53
2022/02/22 04:09:37;;;;;;;4.68;0.80;;;;;;;6.03;97.47;100232.88;5032204;28;20120;-47
2022/02/22 04:12:03;;;;;;;9.38;1.13;;;;;;;5.95;97.46;100241.75;5029405;28;20108;-54
2022/02/22 04:14:29;;;;;;;4.43;0.60;;;;;;;5.92;97.81;100247.78;5033460;28;20030;-50
2022/02/22 04:16:54;;;;;;;2.15;0.57;;;;;;;5.94;98.09;100253.59;5052133;28;20036;-56
2022/02/22 04:19:20;;;;;;;1.67;0.98;;;;;;;5.95;98.70;100255.91;5049375;28;20033;-57
2022/02/22 04:21:45;;;;;;;8.50;0.90;;;;;;;6.00;98.38;100258.34;5044239;28;20496;-55
2022/02/22 04:24:11;;;;;;;2.00;0.55;;;;;;;6.08;97.95;100256.69;5047522;28;20039;-49
2022/02/22 04:26:36;;;;;;;3.60;0.82;;;;;;;6.08;97.38;100262.03;5037643;28;20129;-51
2022/02/22 04:29:02;;;;;;;5.70;1.38;;;;;;;6.01;97.98;100264.50;5024159;28;20233;-47
2022/02/22 04:31:27;;;;;;;8.68;0.95;;;;;;;5.99;97.71;100274.72;5030437;28;20515;-48
2022/02/22 04:33:54;;;;;;;5.63;0.70;;;;;;;5.99;98.01;100266.72;5044174;28;20021;-50
2022/02/22 04:36:19;;;;;;;11.60;1.42;;;;;;;5.95;98.24;100271.16;5033119;28;20030;-50
2022/02/22 04:38:45;;;;;;;4.00;0.80;;;;;;;6.04;97.46;100287.88;5023369;28;20458;-57
2022/02/22 04:41:10;;;;;;;5.75;1.20;;;;;;;6.11;97.06;100285.44;5035414;28;20755;-50
2022/02/22 04:43:36;;;;;;;6.20;0.90;;;;;;;6.09;96.30;100295.69;5023198;28;20365;-51
2022/02/22 04:46:01;;;;;;;5.30;0.75;;;;;;;6.13;96.56;100285.88;5036325;28;20492;-54
2022/02/22 04:48:26;;;;;;;2.35;0.65;;;;;;;6.11;97.06;100301.47;5020384;28;20028;-53
2022/02/22 04:50:52;;;;;;;2.47;0.82;;;;;;;6.11;96.76;100304.94;5035197;28;20116;-48
2022/02/22 04:53:17;;;;;;;5.97;0.77;;;;;;;6.16;96.71;100299.34;5027274;28;20075;-55
2022/02/22 04:55:43;;;;;;;3.63;0.70;;;;;;;6.08;96.35;100326.16;5028905;28;20036;-47
2022/02/22 04:58:08;;;;;;;0.30;0.30;;;;;;;6.04;96.41;100327.97;5034490;28;20052;-50
2022/02/22 05:00:34;;;;;;;1.13;0.47;;;;;;;5.94;97.41;100309.69;5041328;28;20033;-55
2022/02/22 05:02:59;;;;;;;0.35;0.28;;;;;;;5.86;97.09;100319.38;5019516;28;20146;-59
2022/02/22 05:05:25;;;;;;;0.43;0.20;;;;;;;5.87;96.86;100320.13;5035947;28;20475;-54
2022/02/22 05:07:50;;;;;;;0.25;0.25;;;;;;;5.76;96.10;100332.31;5029545;28;20041;-51
2022/02/22 05:10:16;;;;;;;0.47;0.47;;;;;;;5.75;96.55;100336.13;4998762;28;20034;-58
2022/02/22 05:12:41;;;;;;;0.40;0.40;;;;;;;5.77;96.52;100336.56;5038608;28;20036;-48
2022/02/22 05:15:07;;;;;;;0.85;0.25;;;;;;;5.86;96.56;100342.63;5050231;28;20051;-50
2022/02/22 05:17:33;;;;;;;2.55;0.20;;;;;;;5.93;95.94;100337.50;5036065;28;20028;-59
2022/02/22 05:19:59;;;;;;;4.03;0.65;;;;;;;5.92;96.27;100347.41;5040323;28;20021;-51
2022/02/22 05:22:24;;;;;;;0.45;0.45;;;;;;;5.82;96.57;100349.72;5026773;28;20483;-57
2022/02/22 05:24:50;;;;;;;0.73;0.70;;;;;;;5.98;96.49;100356.78;5025898;28;20060;-55
2022/02/22 05:27:15;;;;;;;6.13;0.50;;;;;;;5.89;97.25;100353.44;5026302;28;20390;-49
2022/02/22 05:29:41;;;;;;;2.03;0.52;;;;;;;5.85;97.71;100363.22;5029171;28;20029;-54
2022/02/22 05:32:06;;;;;;;0.88;0.57;;;;;;;5.94;97.43;100365.81;5033250;28;20087;-51
2022/02/22 05:34:36;;;;;;;0.68;0.50;;;;;;;6.03;96.89;100359.25;5037726;28;20162;-49
2022/02/22 05:37:03;;;;;;;4.82;0.30;;;;;;;5.93;97.38;100358.88;5047505;28;20112;-54
2022/02/22 05:39:29;;;;;;;0.60;0.50;;;;;;;5.99;97.77;100368.25;5034332;28;20029;-51
2022/02/22 05:41:55;;;;;;;1.10;0.70;;;;;;;5.93;97.93;100374.91;4990885;28;20037;-61
2022/02/22 05:44:21;;;;;;;5.15;1.08;;;;;;;5.98;97.53;100366.72;5017292;28;20640;-48
2022/02/22 05:46:46;;;;;;;0.28;0.22;;;;;;;5.91;97.96;100371.78;5037466;28;20040;-49
2022/02/22 05:49:12;;;;;;;1.90;0.85;;;;;;;5.95;97.70;100383.38;5019160;28;20284;-59
2022/02/22 05:51:37;;;;;;;0.43;0.38;;;;;;;5.89;98.13;100384.69;5048659;28;20037;-59
2022/02/22 05:54:02;;;;;;;0.40;0.40;;;;;;;5.86;98.70;100385.38;5042907;28;20237;-55
2022/02/22 05:56:28;;;;;;;2.45;0.55;;;;;;;5.90;98.33;100381.72;5016002;28;20083;-54
2022/02/22 05:58:53;;;;;;;5.00;1.85;;;;;;;5.88;98.57;100401.84;5028586;28;20064;-59
2022/02/22 06:01:19;;;;;;;2.45;0.63;;;;;;;5.85;98.52;100395.28;5022990;28;20037;-60
2022/02/22 06:03:44;;;;;;;1.05;0.63;;;;;;;5.90;98.78;100407.66;5000608;28;20399;-51
2022/02/22 06:06:10;;;;;;;3.05;0.73;;;;;;;5.88;98.72;100401.84;5028000;28;20392;-58
2022/02/22 06:08:35;;;;;;;4.78;0.60;;;;;;;5.91;98.38;100407.31;5033112;28;20038;-50
2022/02/22 06:11:01;;;;;;;4.22;1.00;;;;;;;5.91;98.48;100406.53;5036131;28;20120;-53
2022/02/22 06:13:26;;;;;;;0.88;0.82;;;;;;;5.94;98.23;100411.22;5009096;28;20111;-57
2022/02/22 06:15:51;;;;;;;3.22;0.50;;;;;;;5.97;97.88;100405.22;5028289;28;20104;-53
2022/02/22 06:18:17;;;;;;;3.72;0.65;;;;;;;6.04;97.23;100419.59;5009416;28;20535;-54
2022/02/22 06:20:43;;;;;;;0.77;0.22;;;;;;;5.98;97.32;100425.50;5035776;28;20033;-55
2022/02/22 06:23:09;;;;;;;0.93;0.50;;;;;;;5.95;97.54;100426.13;5042652;28;20090;-56
2022/02/22 06:25:34;;;;;;;2.45;1.00;;;;;;;5.93;97.27;100426.47;5015613;28;20037;-50
2022/02/22 06:28:00;;;;;;;6.10;1.17;;;;;;;5.95;97.02;100429.59;5033862;28;20203;-62
2022/02/22 06:30:26;;;;;;;1.35;0.73;;;;;;;5.96;97.31;100419.69;5037430;28;20071;-49
2022/02/22 06:32:52;;;;;;;5.88;1.38;;;;;;;6.06;96.71;100419.25;5026607;28;20025;-60
2022/02/22 06:35:19;;;;;;;5.88;0.70;;;;;;;6.00;96.47;100425.94;5030595;28;20330;-47
2022/02/22 06:37:44;;;;;;;2.53;0.77;;;;;;;6.08;97.07;100425.06;5037394;28;20070;-48
2022/02/22 06:40:10;;;;;;;10.30;1.33;;;;;;;6.07;97.33;100439.56;5034506;28;20037;-52
2022/02/22 06:42:37;;;;;;;1.58;0.88;;;;;;;6.09;97.15;100429.31;5028921;28;20087;-48
2022/02/22 06:45:04;;;;;;;4.47;0.82;;;;;;;6.10;97.21;100439.66;5046792;28;20442;-48
2022/02/22 06:47:29;;;;;;;3.22;0.73;;;;;;;6.06;97.87;100446.00;5037148;28;20051;-58
2022/02/22 06:49:55;;;;;;;3.47;0.90;;;;;;;6.03;97.85;100438.66;5047090;28;20484;-48
2022/02/22 06:52:20;;;;;;;2.15;0.70;;;;;;;6.15;97.20;100452.06;5046418;28;20484;-56
2022/02/22 06:54:47;;;;;;;7.47;0.55;;;;;;;6.24;96.49;100463.44;5041927;28;20025;-49
2022/02/22 06:57:12;;;;;;;1.83;0.70;;;;;;;6.18;96.75;100462.84;5050222;28;20052;-49
2022/02/22 06:59:38;;;;;;;4.18;1.35;;;;;;;6.21;96.85;100464.84;5048714;28;20507;-54
2022/02/22 07:02:03;;;;;;;0.65;0.35;;;;;;;6.26;96.28;100471.91;5037007;28;20212;-54
2022/02/22 07:04:29;;;;;;;3.92;0.57;;;;;;;6.25;95.61;100475.69;5039155;28;20040;-54
2022/02/22 07:06:54;;;;;;;3.83;1.05;;;;;;;6.33;95.31;100485.50;5026270;28;20029;-55
2022/02/22 07:09:20;;;;;;;7.25;0.77;;;;;;;6.23;95.17;100486.69;5039670;28;20033;-59
2022/02/22 07:11:45;;;;;;;2.78;0.75;;;;;;;6.33;94.30;100493.53;5047079;28;20029;-51
2022/02/22 07:14:11;;;;;;;2.30;0.73;;;;;;;6.34;93.97;100493.22;5040322;28;20005;-53
2022/02/22 07:16:36;;;;;;;2.92;1.38;;;;;;;6.47;93.72;100504.72;5029623;28;20037;-55
2022/02/22 07:19:02;;;;;;;7.05;0.65;;;;;;;6.55;93.33;100505.72;5030578;28;20033;-54
2022/02/22 07:21:28;;;;;;;3.65;1.65;;;;;;;6.62;93.30;100517.44;5042027;28;20041;-50
2022/02/22 07:23:54;;;;;;;8.23;1.17;;;;;;;6.84;92.34;100516.25;5035509;28;20033;-51
2022/02/22 07:26:20;;;;;;;4.53;0.90;;;;;;;6.84;91.25;100509.03;5041091;28;20041;-58
2022/02/22 07:28:45;;;;;;;13.38;1.60;;;;;;;6.72;91.26;100511.69;5024717;28;20032;-51
2022/02/22 07:31:11;;;;;;;4.80;1.42;;;;;;;6.74;91.63;100522.84;5011846;28;20021;-56
2022/02/22 07:33:41;;;;;;;5.55;1.17;;;;;;;6.68;92.05;100521.47;5040970;28;20020;-54
2022/02/22 07:36:07;;;;;;;5.53;1.50;;;;;;;6.73;92.02;100523.16;5029422;28;20502;-48
2022/02/22 07:38:33;;;;;;;2.05;0.63;;;;;;;6.80;91.32;100529.53;5046734;28;20140;-49
2022/02/22 07:40:59;;;;;;;4.05;0.90;;;;;;;6.77;91.67;100524.88;5045738;28;20446;-51
2022/02/22 07:43:25;;;;;;;4.20;0.75;;;;;;;6.81;91.60;100525.75;5049948;28;20044;-55
2022/02/22 07:45:51;;;;;;;12.38;1.27;;;;;;;6.84;91.26;100532.31;5050707;28;20041;-52
2022/02/22 07:48:16;;;;;;;4.13;0.55;;;;;;;6.85;91.40;100536.56;5048545;28;20085;-50
2022/02/22 07:50:42;;;;;;;3.22;0.95;;;;;;;6.92;91.16;100534.91;5045646;28;20442;-56
2022/02/22 07:53:08;;;;;;;1.20;0.75;;;;;;;7.02;89.86;100555.09;5044474;28;20052;-57
2022/02/22 07:55:33;;;;;;;4.07;0.80;;;;;;;7.00;89.53;100560.81;5040976;28;20041;-50
2022/02/22 07:57:59;;;;;;;3.45;0.85;;;;;;;7.02;89.64;100558.56;5042303;28;20108;-49
2022/02/22 08:00:24;;;;;;;4.40;1.13;;;;;;;6.89;89.45;100562.31;5047335;28;20502;-53
2022/02/22 08:02:54;;;;;;;4.63;0.57;;;;;;;7.09;89.00;100556.13;5051416;28;20467;-59
2022/02/22 08:05:20;;;;;;;2.30;0.63;;;;;;;7.04;89.17;100572.41;5027153;28;20476;-56
2022/02/22 08:07:45;;;;;;;1.25;0.50;;;;;;;6.88;88.82;100571.47;5046631;28;20059;-53
2022/02/22 08:10:11;;;;;;;4.53;0.75;;;;;;;6.93;89.58;100581.19;5046609;28;20483;-51
2022/02/22 08:12:36;;;;;;;9.32;1.17;;;;;;;7.01;91.79;100588.34;5042631;28;20041;-56
2022/02/22 08:15:03;;;;;;;10.05;1.60;;;;;;;7.07;91.22;100584.31;5048599;28;20170;-52
2022/02/22 08:17:28;;;;;;;1.85;0.75;;;;;;;7.17;89.17;100586.56;5043468;28;20218;-51
2022/02/22 08:19:54;;;;;;;11.93;0.98;;;;;;;7.27;87.62;100586.94;5021844;28;20079;-60
2022/02/22 08:22:20;;;;;;;2.63;0.90;;;;;;;7.27;88.08;100589.63;5039903;28;20037;-52
2022/02/22 08:24:45;;;;;;;3.25;0.73;;;;;;;7.28;87.62;100588.47;5032276;28;20029;-54
2022/02/22 08:27:10;;;;;;;0.43;0.35;;;;;;;7.27;87.69;100600.31;5048929;28;20037;-53
2022/02/22 08:29:36;;;;;;;2.60;0.60;;;;;;;7.18;87.16;100590.84;5039414;28;20299;-60
2022/02/22 08:32:01;;;;;;;0.65;0.50;;;;;;;7.17;87.51;100600.75;5036221;28;20444;-55
2022/02/22 08:34:27;;;;;;;4.15;0.95;;;;;;;7.28;86.52;100598.41;5036988;28;20478;-60
2022/02/22 08:36:52;;;;;;;2.60;0.55;;;;;;;7.30;86.78;100602.31;5040367;28;20227;-52
2022/02/22 08:39:18;;;;;;;8.98;1.30;;;;;;;7.35;86.25;100612.03;5036715;28;20033;-52
2022/02/22 08:41:43;;;;;;;5.43;0.60;;;;;;;7.40;86.31;100603.00;5044871;28;20124;-53
2022/02/22 08:44:10;;;;;;;1.73;0.68;;;;;;;7.43;86.48;100611.16;5038167;28;20029;-50
2022/02/22 08:46:36;;;;;;;1.20;0.50;;;;;;;7.45;86.00;100614.28;5032713;28;20691;-55
2022/02/22 08:49:02;;;;;;;4.47;0.88;;;;;;;7.45;86.18;100616.19;5039677;28;20392;-54
2022/02/22 08:51:28;;;;;;;0.73;0.43;;;;;;;7.53;86.00;100612.63;5034577;28;20040;-63
2022/02/22 08:53:54;;;;;;;6.05;0.63;;;;;;;7.66;85.56;100622.22;5021858;28;20036;-58
2022/02/22 08:56:19;;;;;;;7.28;1.58;;;;;;;7.67;85.22;100618.41;5043275;28;20040;-52
2022/02/22 08:58:45;;;;;;;6.95;0.70;;;;;;;7.74;84.42;100621.31;5039118;28;20025;-53
2022/02/22 09:01:11;;;;;;;8.73;0.77;;;;;;;7.87;82.67;100620.97;5041506;28;20052;-52
2022/02/22 09:03:36;;;;;;;3.47;0.60;;;;;;;7.84;82.56;100626.22;5036247;28;20036;-58
2022/02/22 09:06:01;;;;;;;6.05;0.90;;;;;;;7.89;80.96;100621.41;5029200;28;20036;-55
2022/02/22 09:08:28;;;;;;;1.17;0.82;;;;;;;7.96;81.40;100639.59;5049080;28;20029;-55
2022/02/22 09:10:54;;;;;;;5.22;0.47;;;;;;;8.04;81.01;100649.44;5045587;28;20025;-57
2022/02/22 09:13:20;;;;;;;6.80;0.63;;;;;;;8.03;81.20;100642.50;5033672;28;20428;-58
2022/02/22 09:15:46;;;;;;;3.33;0.95;;;;;;;8.08;79.83;100642.28;5053302;28;20036;-58
2022/02/22 09:18:12;;;;;;;3.20;0.68;;;;;;;8.16;78.89;100625.28;5023248;28;20091;-56
2022/02/22 09:20:38;;;;;;;4.25;0.52;;;;;;;8.17;78.39;100632.97;5026068;28;20033;-54
2022/02/22 09:23:03;;;;;;;1.95;0.50;;;;;;;8.29;78.48;100640.25;5045460;28;20116;-52
2022/02/22 09:25:35;;;;;;;3.15;0.95;;;;;;;8.46;78.27;100644.56;5047303;28;20479;-55
2022/02/22 09:28:03;;;;;;;3.95;0.80;;;;;;;8.74;77.24;100648.03;5036719;28;20116;-59
2022/02/22 09:30:31;;;;;;;3.70;0.50;;;;;;;9.00;76.31;100648.38;5034845;28;20361;-55
2022/02/22 09:32:57;;;;;;;3.78;0.85;;;;;;;9.18;74.68;100649.59;5041087;28;20037;-53
2022/02/22 09:35:24;;;;;;;5.43;0.68;;;;;;;9.13;73.51;100660.59;5030932;28;20056;-53
2022/02/22 09:37:51;;;;;;;1.38;0.40;;;;;;;9.14;73.07;100650.66;5038768;28;20380;-59
2022/02/22 09:40:16;;;;;;;12.48;0.90;;;;;;;9.15;72.51;100660.25;5028883;28;20045;-57
2022/02/22 09:42:43;;;;;;;3.42;0.63;;;;;;;8.95;72.49;100653.97;5033612;28;20095;-57
2022/02/22 09:45:09;;;;;;;8.30;1.60;;;;;;;9.05;72.64;100643.53;5027184;28;20048;-59
2022/02/22 09:47:35;;;;;;;1.67;1.27;;;;;;;9.03;73.61;100645.78;5043582;28;20441;-55
2022/02/22 09:50:03;;;;;;;3.05;0.68;;;;;;;8.91;73.12;100645.81;5041380;28;20404;-58
2022/02/22 09:52:28;;;;;;;7.05;0.70;;;;;;;8.97;73.06;100639.09;5026357;28;20067;-57
2022/02/22 09:54:54;;;;;;;6.70;1.05;;;;;;;9.10;72.53;100648.63;5026260;28;20034;-53
2022/02/22 09:57:20;;;;;;;5.28;0.73;;;;;;;9.04;72.22;100639.25;5041056;28;20078;-60
2022/02/22 09:59:45;;;;;;;1.23;0.57;;;;;;;9.03;72.05;100644.97;5032298;28;20036;-55
2022/02/22 10:02:11;;;;;;;0.75;0.50;;;;;;;8.94;72.64;100639.75;5040131;28;20063;-53
2022/02/22 10:04:44;;;;;;;2.97;0.60;;;;;;;8.86;74.16;100632.66;5043452;28;20033;-58
2022/02/22 10:07:11;;;;;;;5.95;0.75;;;;;;;8.94;75.68;100653.19;5036665;28;20103;-57
2022/02/22 10:09:50;;;;;;;2.60;0.93;;;;;;;9.04;75.77;100660.75;5013172;28;20037;-56
2022/02/22 10:12:27;;;;;;;0.60;0.60;;;;;;;9.10;75.33;100672.00;5033464;28;20447;-52
2022/02/22 10:14:55;;;;;;;4.10;0.93;;;;;;;9.09;75.33;100679.31;5016324;28;20124;-54
2022/02/22 10:17:20;;;;;;;3.90;0.60;;;;;;;9.02;75.49;100679.09;5023695;28;20052;-53
2022/02/22 10:19:59;;;;;;;1.00;0.68;;;;;;;8.99;74.47;100684.41;5018008;28;20060;-55
2022/02/22 10:22:25;;;;;;;5.13;1.02;;;;;;;8.93;75.16;100675.81;5032803;28;20021;-59
2022/02/22 10:25:01;;;;;;;3.85;0.80;;;;;;;8.96;74.75;100675.09;5031547;28;20628;-55
2022/02/22 10:27:27;;;;;;;2.70;1.30;;;;;;;8.83;73.73;100684.34;5038613;28;20055;-55
2022/02/22 10:29:53;;;;;;;2.30;0.63;;;;;;;8.70;72.87;100677.47;5028936;28;20029;-54
2022/02/22 10:32:18;;;;;;;1.15;0.50;;;;;;;8.79;72.50;100674.63;5046561;22;20081;-56
2022/02/22 10:34:44;;;;;;;0.47;0.47;;;;;;;8.95;73.12;100672.78;5026062;28;20108;-59
2022/02/22 10:37:10;;;;;;;1.10;0.93;;;;;;;8.90;74.35;100673.03;5022779;28;20045;-55
2022/02/22 10:39:36;;;;;;;5.75;0.63;;;;;;;8.92;74.77;100678.84;5030954;28;20051;-55
2022/02/22 10:42:01;;;;;;;3.40;0.88;;;;;;;8.95;75.03;100686.19;5038099;28;20032;-51
2022/02/22 10:44:32;;;;;;;7.63;1.23;;;;;;;8.98;75.81;100683.59;5029048;28;20488;-50
2022/02/22 10:46:58;;;;;;;3.63;0.70;;;;;;;9.12;75.19;100693.19;5025212;28;20032;-50
2022/02/22 10:49:25;;;;;;;2.03;0.63;;;;;;;9.20;73.93;100690.31;5027072;28;20044;-56
2022/02/22 10:51:51;;;;;;;11.93;0.85;;;;;;;9.09;72.52;100695.44;5027806;28;20040;-53
2022/02/22 10:54:23;;;;;;;2.17;0.65;;;;;;;9.19;73.82;100693.38;5019921;28;20112;-54
2022/02/22 10:56:49;;;;;;;7.90;0.77;;;;;;;9.38;73.55;100690.78;5013313;28;20044;-51
2022/02/22 10:59:17;;;;;;;1.65;0.85;;;;;;;9.37;72.93;100689.25;5006810;28;20029;-59
2022/02/22 11:01:43;;;;;;;0.60;0.43;;;;;;;9.32;73.29;100684.09;5022582;28;20451;-56
2022/02/22 11:04:10;;;;;;;1.10;0.60;;;;;;;9.37;72.70;100679.25;5023886;28;20083;-49
2022/02/22 11:06:36;;;;;;;7.25;2.35;;;;;;;9.31;72.29;100682.56;5001338;28;20033;-50
2022/02/22 11:09:03;;;;;;;4.55;0.65;;;;;;;9.35;71.92;100678.06;5024823;28;20435;-52
2022/02/22 11:11:41;;;;;;;4.05;0.90;;;;;;;9.36;73.33;100683.06;5029801;28;20032;-49
2022/02/22 11:14:22;;;;;;;6.20;1.00;;;;;;;9.31;74.07;100677.19;5028622;28;20061;-55
2022/02/22 11:16:50;;;;;;;1.40;0.68;;;;;;;9.35;74.01;100660.00;5022814;28;20076;-57
2022/02/22 11:19:20;;;;;;;1.35;0.65;;;;;;;9.66;74.12;100664.59;5017953;28;20025;-55
2022/02/22 11:21:49;;;;;;;1.10;0.73;;;;;;;9.57;74.26;100669.38;5015280;28;20037;-50
2022/02/22 11:24:18;;;;;;;5.50;0.57;;;;;;;9.58;72.56;100668.28;5012508;28;20084;-50
2022/02/22 11:26:46;;;;;;;9.90;0.70;;;;;;;9.57;73.36;100666.69;5003533;28;20040;-49
2022/02/22 11:29:13;;;;;;;3.35;0.88;;;;;;;9.61;72.47;100664.88;5016278;28;20030;-57